sensor_id;sensor_type;location;lat;lon;timestamp;pressure;altitude;pressure_sealevel;temperature;humidity
72262;BME280;60173;52.112;8.648;2023-04-04T00:01:34;102037.22;;;-0.15;70.26
72262;BME280;60173;52.112;8.648;2023-04-04T00:04:00;102029.97;;;-0.21;70.26
72262;BME280;60173;52.112;8.648;2023-04-04T00:06:27;102027.28;;;-0.21;70.69
72262;BME280;60173;52.112;8.648;2023-04-04T00:08:53;102024.94;;;-0.31;70.47
72262;BME280;60173;52.112;8.648;2023-04-04T00:11:20;102028.69;;;-0.25;70.24
72262;BME280;60173;52.112;8.648;2023-04-04T00:13:46;102028.88;;;-0.27;70.33
72262;BME280;60173;52.112;8.648;2023-04-04T00:16:12;102028.50;;;-0.24;70.29
72262;BME280;60173;52.112;8.648;2023-04-04T00:18:39;102027.69;;;-0.24;70.31
72262;BME280;60173;52.112;8.648;2023-04-04T00:21:05;102027.25;;;-0.42;70.73
72262;BME280;60173;52.112;8.648;2023-04-04T00:23:32;102023.94;;;-0.44;71.10
72262;BME280;60173;52.112;8.648;2023-04-04T00:25:58;102027.47;;;-0.59;71.59
72262;BME280;60173;52.112;8.648;2023-04-04T00:28:24;102023.69;;;-0.64;72.04
72262;BME280;60173;52.112;8.648;2023-04-04T00:30:51;102026.28;;;-0.71;72.08
72262;BME280;60173;52.112;8.648;2023-04-04T00:33:17;102032.81;;;-0.88;72.81
72262;BME280;60173;52.112;8.648;2023-04-04T00:35:43;102025.91;;;-1.12;74.77
72262;BME280;60173;52.112;8.648;2023-04-04T00:38:10;102023.69;;;-1.24;74.99
72262;BME280;60173;52.112;8.648;2023-04-04T00:40:41;102023.81;;;-1.40;75.58
72262;BME280;60173;52.112;8.648;2023-04-04T00:43:08;102019.47;;;-1.56;76.89
72262;BME280;60173;52.112;8.648;2023-04-04T00:45:35;102014.56;;;-1.67;77.70
72262;BME280;60173;52.112;8.648;2023-04-04T00:48:01;102025.78;;;-1.80;78.47
72262;BME280;60173;52.112;8.648;2023-04-04T00:50:28;102027.34;;;-1.86;79.47
72262;BME280;60173;52.112;8.648;2023-04-04T00:52:54;102018.56;;;-1.94;80.24
72262;BME280;60173;52.112;8.648;2023-04-04T00:55:21;102019.47;;;-2.02;80.74
72262;BME280;60173;52.112;8.648;2023-04-04T00:57:47;102018.19;;;-2.14;81.66
72262;BME280;60173;52.112;8.648;2023-04-04T01:00:14;102023.59;;;-2.22;82.09
72262;BME280;60173;52.112;8.648;2023-04-04T01:02:41;102020.78;;;-2.29;82.37
72262;BME280;60173;52.112;8.648;2023-04-04T01:05:07;102018.28;;;-2.22;82.67
72262;BME280;60173;52.112;8.648;2023-04-04T01:07:38;102024.22;;;-2.20;83.17
72262;BME280;60173;52.112;8.648;2023-04-04T01:10:05;102026.06;;;-2.21;82.70
72262;BME280;60173;52.112;8.648;2023-04-04T01:12:31;102026.41;;;-2.24;82.91
72262;BME280;60173;52.112;8.648;2023-04-04T01:14:57;102025.94;;;-2.28;83.10
72262;BME280;60173;52.112;8.648;2023-04-04T01:17:24;102020.97;;;-2.31;83.16
72262;BME280;60173;52.112;8.648;2023-04-04T01:20:10;102019.28;;;-2.32;83.46
72262;BME280;60173;52.112;8.648;2023-04-04T01:22:37;102026.47;;;-2.32;83.60
72262;BME280;60173;52.112;8.648;2023-04-04T01:25:06;102020.16;;;-2.31;83.14
72262;BME280;60173;52.112;8.648;2023-04-04T01:27:33;102018.81;;;-2.35;83.59
72262;BME280;60173;52.112;8.648;2023-04-04T01:29:59;102012.69;;;-2.36;84.03
72262;BME280;60173;52.112;8.648;2023-04-04T01:35:12;102017.53;;;-2.39;83.81
72262;BME280;60173;52.112;8.648;2023-04-04T01:40:27;102021.03;;;-2.47;84.52
72262;BME280;60173;52.112;8.648;2023-04-04T01:42:57;102016.69;;;-2.40;84.31
72262;BME280;60173;52.112;8.648;2023-04-04T01:45:23;102016.88;;;-2.41;84.09
72262;BME280;60173;52.112;8.648;2023-04-04T01:47:50;102018.03;;;-2.44;84.50
72262;BME280;60173;52.112;8.648;2023-04-04T01:50:16;102017.22;;;-2.44;84.00
72262;BME280;60173;52.112;8.648;2023-04-04T01:52:42;102014.44;;;-2.51;84.03
72262;BME280;60173;52.112;8.648;2023-04-04T01:55:09;102010.97;;;-2.60;84.83
72262;BME280;60173;52.112;8.648;2023-04-04T01:57:35;102006.13;;;-2.56;85.74
72262;BME280;60173;52.112;8.648;2023-04-04T02:00:02;102003.78;;;-2.51;85.52
72262;BME280;60173;52.112;8.648;2023-04-04T02:02:28;102001.41;;;-2.46;85.41
72262;BME280;60173;52.112;8.648;2023-04-04T02:04:55;102000.03;;;-2.34;84.77
72262;BME280;60173;52.112;8.648;2023-04-04T02:07:21;101999.38;;;-2.36;84.30
72262;BME280;60173;52.112;8.648;2023-04-04T02:09:47;101996.06;;;-2.38;84.03
72262;BME280;60173;52.112;8.648;2023-04-04T02:12:14;101992.06;;;-2.34;83.95
72262;BME280;60173;52.112;8.648;2023-04-04T02:14:40;101991.38;;;-2.36;83.62
72262;BME280;60173;52.112;8.648;2023-04-04T02:17:06;101999.72;;;-2.39;83.75
72262;BME280;60173;52.112;8.648;2023-04-04T02:19:33;101998.91;;;-2.39;83.80
72262;BME280;60173;52.112;8.648;2023-04-04T02:21:59;101999.88;;;-2.40;83.36
72262;BME280;60173;52.112;8.648;2023-04-04T02:24:25;102000.03;;;-2.34;83.34
72262;BME280;60173;52.112;8.648;2023-04-04T02:26:52;101996.72;;;-2.36;83.31
72262;BME280;60173;52.112;8.648;2023-04-04T02:29:18;102001.69;;;-2.33;83.88
72262;BME280;60173;52.112;8.648;2023-04-04T02:31:44;102001.22;;;-2.36;83.98
72262;BME280;60173;52.112;8.648;2023-04-04T02:34:11;102002.38;;;-2.39;84.04
72262;BME280;60173;52.112;8.648;2023-04-04T02:36:37;101998.06;;;-2.40;84.06
72262;BME280;60173;52.112;8.648;2023-04-04T02:39:03;101996.75;;;-2.44;84.05
72262;BME280;60173;52.112;8.648;2023-04-04T02:41:30;101999.41;;;-2.44;84.10
72262;BME280;60173;52.112;8.648;2023-04-04T02:43:56;101997.75;;;-2.45;84.09
72262;BME280;60173;52.112;8.648;2023-04-04T02:46:23;101997.28;;;-2.48;84.24
72262;BME280;60173;52.112;8.648;2023-04-04T02:48:49;101992.63;;;-2.55;84.61
72262;BME280;60173;52.112;8.648;2023-04-04T02:51:15;101987.16;;;-2.53;85.19
72262;BME280;60173;52.112;8.648;2023-04-04T02:53:42;101988.81;;;-2.52;84.94
72262;BME280;60173;52.112;8.648;2023-04-04T02:56:08;101978.50;;;-2.55;84.88
72262;BME280;60173;52.112;8.648;2023-04-04T02:58:34;101979.19;;;-2.53;84.53
72262;BME280;60173;52.112;8.648;2023-04-04T03:01:01;101970.56;;;-2.63;84.55
72262;BME280;60173;52.112;8.648;2023-04-04T03:03:27;101972.63;;;-2.74;84.84
72262;BME280;60173;52.112;8.648;2023-04-04T03:05:54;101971.13;;;-2.76;85.12
72262;BME280;60173;52.112;8.648;2023-04-04T03:08:20;101970.34;;;-2.85;85.64
72262;BME280;60173;52.112;8.648;2023-04-04T03:10:47;101964.06;;;-2.92;86.08
72262;BME280;60173;52.112;8.648;2023-04-04T03:13:13;101964.00;;;-2.84;86.70
72262;BME280;60173;52.112;8.648;2023-04-04T03:15:39;101965.72;;;-2.91;86.39
72262;BME280;60173;52.112;8.648;2023-04-04T03:18:06;101958.41;;;-2.89;86.83
72262;BME280;60173;52.112;8.648;2023-04-04T03:20:32;101966.31;;;-2.81;87.03
72262;BME280;60173;52.112;8.648;2023-04-04T03:22:58;101960.97;;;-2.73;86.81
72262;BME280;60173;52.112;8.648;2023-04-04T03:25:25;101958.38;;;-2.50;85.67
72262;BME280;60173;52.112;8.648;2023-04-04T03:27:51;101957.94;;;-2.61;84.99
72262;BME280;60173;52.112;8.648;2023-04-04T03:30:17;101958.28;;;-2.64;85.40
72262;BME280;60173;52.112;8.648;2023-04-04T03:32:44;101951.34;;;-2.74;85.94
72262;BME280;60173;52.112;8.648;2023-04-04T03:35:10;101949.88;;;-2.76;86.44
72262;BME280;60173;52.112;8.648;2023-04-04T03:37:36;101950.53;;;-2.74;86.82
72262;BME280;60173;52.112;8.648;2023-04-04T03:40:03;101956.66;;;-2.74;86.78
72262;BME280;60173;52.112;8.648;2023-04-04T03:42:33;101955.50;;;-2.71;86.54
72262;BME280;60173;52.112;8.648;2023-04-04T03:44:59;101948.84;;;-2.75;86.49
72262;BME280;60173;52.112;8.648;2023-04-04T03:47:25;101951.47;;;-2.67;86.61
72262;BME280;60173;52.112;8.648;2023-04-04T03:49:52;101959.81;;;-2.70;86.40
72262;BME280;60173;52.112;8.648;2023-04-04T03:52:18;101955.31;;;-2.69;86.37
72262;BME280;60173;52.112;8.648;2023-04-04T03:54:44;101954.50;;;-2.78;86.58
72262;BME280;60173;52.112;8.648;2023-04-04T03:57:11;101952.53;;;-2.76;87.19
72262;BME280;60173;52.112;8.648;2023-04-04T03:59:37;101955.03;;;-2.75;87.57
72262;BME280;60173;52.112;8.648;2023-04-04T04:02:03;101957.63;;;-2.66;87.28
72262;BME280;60173;52.112;8.648;2023-04-04T04:04:30;101953.75;;;-2.56;86.65
72262;BME280;60173;52.112;8.648;2023-04-04T04:06:56;101950.97;;;-2.62;86.76
72262;BME280;60173;52.112;8.648;2023-04-04T04:09:22;101944.81;;;-2.63;86.85
72262;BME280;60173;52.112;8.648;2023-04-04T04:11:49;101945.81;;;-2.64;86.69
72262;BME280;60173;52.112;8.648;2023-04-04T04:14:15;101937.91;;;-2.49;86.69
72262;BME280;60173;52.112;8.648;2023-04-04T04:16:41;101939.28;;;-2.53;86.64
72262;BME280;60173;52.112;8.648;2023-04-04T04:19:08;101936.38;;;-2.43;86.68
72262;BME280;60173;52.112;8.648;2023-04-04T04:21:34;101931.56;;;-2.40;86.07
72262;BME280;60173;52.112;8.648;2023-04-04T04:24:00;101934.69;;;-2.36;84.95
72262;BME280;60173;52.112;8.648;2023-04-04T04:26:27;101935.94;;;-2.55;85.91
72262;BME280;60173;52.112;8.648;2023-04-04T04:28:53;101927.56;;;-2.75;86.65
72262;BME280;60173;52.112;8.648;2023-04-04T04:31:19;101933.47;;;-2.88;87.21
72262;BME280;60173;52.112;8.648;2023-04-04T04:33:46;101936.34;;;-2.66;87.02
72262;BME280;60173;52.112;8.648;2023-04-04T04:36:12;101938.28;;;-2.83;86.99
72262;BME280;60173;52.112;8.648;2023-04-04T04:38:38;101934.75;;;-2.84;87.57
72262;BME280;60173;52.112;8.648;2023-04-04T04:41:05;101934.91;;;-2.77;87.58
72262;BME280;60173;52.112;8.648;2023-04-04T04:43:31;101935.91;;;-2.78;87.83
72262;BME280;60173;52.112;8.648;2023-04-04T04:45:58;101936.78;;;-2.86;87.79
72262;BME280;60173;52.112;8.648;2023-04-04T04:48:24;101936.00;;;-2.94;87.85
72262;BME280;60173;52.112;8.648;2023-04-04T04:50:50;101935.81;;;-2.93;87.64
72262;BME280;60173;52.112;8.648;2023-04-04T04:53:16;101937.50;;;-3.00;87.74
72262;BME280;60173;52.112;8.648;2023-04-04T04:55:44;101937.66;;;-3.02;88.21
72262;BME280;60173;52.112;8.648;2023-04-04T04:58:10;101939.19;;;-3.07;88.58
72262;BME280;60173;52.112;8.648;2023-04-04T05:00:37;101945.38;;;-3.15;89.13
72262;BME280;60173;52.112;8.648;2023-04-04T05:03:04;101945.53;;;-3.16;89.76
72262;BME280;60173;52.112;8.648;2023-04-04T05:05:32;101949.53;;;-3.21;90.16
72262;BME280;60173;52.112;8.648;2023-04-04T05:08:00;101950.72;;;-3.23;90.53
72262;BME280;60173;52.112;8.648;2023-04-04T05:10:26;101945.88;;;-3.20;90.79
72262;BME280;60173;52.112;8.648;2023-04-04T05:12:53;101947.69;;;-3.12;90.75
72262;BME280;60173;52.112;8.648;2023-04-04T05:15:19;101939.19;;;-3.07;90.40
72262;BME280;60173;52.112;8.648;2023-04-04T05:17:45;101952.75;;;-2.86;90.27
72262;BME280;60173;52.112;8.648;2023-04-04T05:20:12;101948.66;;;-2.65;89.03
72262;BME280;60173;52.112;8.648;2023-04-04T05:22:45;101952.66;;;-2.69;88.37
72262;BME280;60173;52.112;8.648;2023-04-04T05:25:12;101952.66;;;-2.69;88.15
72262;BME280;60173;52.112;8.648;2023-04-04T05:27:39;101956.94;;;-2.60;87.98
72262;BME280;60173;52.112;8.648;2023-04-04T05:30:06;101959.56;;;-2.29;86.84
72262;BME280;60173;52.112;8.648;2023-04-04T05:32:32;101953.13;;;-2.35;85.95
72262;BME280;60173;52.112;8.648;2023-04-04T05:34:59;101954.50;;;-2.39;85.90
72262;BME280;60173;52.112;8.648;2023-04-04T05:37:25;101960.75;;;-2.32;86.49
72262;BME280;60173;52.112;8.648;2023-04-04T05:39:52;101964.13;;;-2.38;86.13
72262;BME280;60173;52.112;8.648;2023-04-04T05:42:18;101962.63;;;-2.40;87.11
72262;BME280;60173;52.112;8.648;2023-04-04T05:44:45;101964.06;;;-2.30;87.58
72262;BME280;60173;52.112;8.648;2023-04-04T05:47:11;101961.53;;;-2.23;87.10
72262;BME280;60173;52.112;8.648;2023-04-04T05:49:37;101962.59;;;-2.09;86.86
72262;BME280;60173;52.112;8.648;2023-04-04T05:52:04;101965.50;;;-1.96;85.94
72262;BME280;60173;52.112;8.648;2023-04-04T05:54:30;101962.59;;;-1.86;85.50
72262;BME280;60173;52.112;8.648;2023-04-04T05:56:56;101966.09;;;-1.86;84.76
72262;BME280;60173;52.112;8.648;2023-04-04T05:59:23;101969.28;;;-1.67;84.64
72262;BME280;60173;52.112;8.648;2023-04-04T06:01:49;101975.13;;;-1.72;83.97
72262;BME280;60173;52.112;8.648;2023-04-04T06:04:16;101976.72;;;-1.63;83.47
72262;BME280;60173;52.112;8.648;2023-04-04T06:06:42;101981.84;;;-1.23;83.24
72262;BME280;60173;52.112;8.648;2023-04-04T06:09:08;101984.50;;;-0.79;82.01
72262;BME280;60173;52.112;8.648;2023-04-04T06:11:35;101977.69;;;-0.30;80.43
72262;BME280;60173;52.112;8.648;2023-04-04T06:14:01;101978.38;;;0.15;78.89
72262;BME280;60173;52.112;8.648;2023-04-04T06:16:27;101984.25;;;0.81;77.51
72262;BME280;60173;52.112;8.648;2023-04-04T06:18:54;101994.50;;;1.54;74.92
72262;BME280;60173;52.112;8.648;2023-04-04T06:21:20;101982.28;;;2.39;72.22
72262;BME280;60173;52.112;8.648;2023-04-04T06:23:46;101979.75;;;3.04;69.77
72262;BME280;60173;52.112;8.648;2023-04-04T06:26:13;101981.00;;;3.53;66.58
72262;BME280;60173;52.112;8.648;2023-04-04T06:28:47;101988.06;;;3.48;65.78
72262;BME280;60173;52.112;8.648;2023-04-04T06:31:13;101982.28;;;3.44;63.60
72262;BME280;60173;52.112;8.648;2023-04-04T06:33:39;101996.91;;;2.77;66.08
72262;BME280;60173;52.112;8.648;2023-04-04T06:36:06;101994.44;;;2.48;68.60
72262;BME280;60173;52.112;8.648;2023-04-04T06:38:32;101999.84;;;2.29;69.31
72262;BME280;60173;52.112;8.648;2023-04-04T06:40:58;101998.75;;;2.03;70.11
72262;BME280;60173;52.112;8.648;2023-04-04T06:43:25;102008.63;;;1.96;70.60
72262;BME280;60173;52.112;8.648;2023-04-04T06:45:51;102002.63;;;1.87;71.37
72262;BME280;60173;52.112;8.648;2023-04-04T06:48:17;102008.16;;;1.72;71.69
72262;BME280;60173;52.112;8.648;2023-04-04T06:50:44;101998.88;;;1.68;72.19
72262;BME280;60173;52.112;8.648;2023-04-04T06:53:10;101998.88;;;1.75;72.56
72262;BME280;60173;52.112;8.648;2023-04-04T06:55:36;101998.91;;;1.81;72.38
72262;BME280;60173;52.112;8.648;2023-04-04T06:58:03;101993.19;;;1.98;72.57
72262;BME280;60173;52.112;8.648;2023-04-04T07:00:29;101992.78;;;2.08;71.74
72262;BME280;60173;52.112;8.648;2023-04-04T07:02:56;101994.03;;;2.18;71.32
72262;BME280;60173;52.112;8.648;2023-04-04T07:05:23;101998.97;;;2.28;70.76
72262;BME280;60173;52.112;8.648;2023-04-04T07:07:55;101991.97;;;2.34;71.41
72262;BME280;60173;52.112;8.648;2023-04-04T07:10:23;101996.31;;;2.48;71.03
72262;BME280;60173;52.112;8.648;2023-04-04T07:12:49;101995.28;;;2.76;70.47
72262;BME280;60173;52.112;8.648;2023-04-04T07:15:16;102000.19;;;2.92;69.32
72262;BME280;60173;52.112;8.648;2023-04-04T07:17:42;102004.75;;;2.98;66.04
72262;BME280;60173;52.112;8.648;2023-04-04T07:20:09;101997.91;;;2.89;65.12
72262;BME280;60173;52.112;8.648;2023-04-04T07:22:36;102000.16;;;3.05;65.65
72262;BME280;60173;52.112;8.648;2023-04-04T07:25:03;101997.47;;;3.12;64.26
72262;BME280;60173;52.112;8.648;2023-04-04T07:27:29;101996.41;;;3.20;63.82
72262;BME280;60173;52.112;8.648;2023-04-04T07:29:56;101988.16;;;3.21;62.51
72262;BME280;60173;52.112;8.648;2023-04-04T07:32:22;101995.19;;;3.09;63.84
72262;BME280;60173;52.112;8.648;2023-04-04T07:34:50;101996.06;;;2.83;63.87
72262;BME280;60173;52.112;8.648;2023-04-04T07:37:16;101995.88;;;2.78;64.53
72262;BME280;60173;52.112;8.648;2023-04-04T07:39:42;101983.63;;;3.15;63.45
72262;BME280;60173;52.112;8.648;2023-04-04T07:42:08;101994.09;;;3.36;62.04
72262;BME280;60173;52.112;8.648;2023-04-04T07:44:35;101989.22;;;3.58;61.03
72262;BME280;60173;52.112;8.648;2023-04-04T07:47:01;101976.59;;;3.14;60.73
72262;BME280;60173;52.112;8.648;2023-04-04T07:49:35;101981.38;;;3.63;60.48
72262;BME280;60173;52.112;8.648;2023-04-04T07:52:02;101979.09;;;3.99;58.46
72262;BME280;60173;52.112;8.648;2023-04-04T07:54:28;101985.56;;;3.91;57.72
72262;BME280;60173;52.112;8.648;2023-04-04T07:56:54;101990.91;;;3.53;60.92
72262;BME280;60173;52.112;8.648;2023-04-04T07:59:21;101981.63;;;3.94;58.93
72262;BME280;60173;52.112;8.648;2023-04-04T08:01:47;101980.19;;;4.23;56.29
72262;BME280;60173;52.112;8.648;2023-04-04T08:04:13;101977.69;;;4.21;56.61
72262;BME280;60173;52.112;8.648;2023-04-04T08:06:40;101981.81;;;4.24;59.03
72262;BME280;60173;52.112;8.648;2023-04-04T08:09:06;101975.03;;;4.46;58.54
72262;BME280;60173;52.112;8.648;2023-04-04T08:11:33;101976.94;;;4.64;57.83
72262;BME280;60173;52.112;8.648;2023-04-04T08:13:59;101976.38;;;4.81;58.21
72262;BME280;60173;52.112;8.648;2023-04-04T08:16:25;101974.88;;;5.03;57.49
72262;BME280;60173;52.112;8.648;2023-04-04T08:18:52;101969.81;;;5.13;55.43
72262;BME280;60173;52.112;8.648;2023-04-04T08:21:18;101973.56;;;5.12;54.80
72262;BME280;60173;52.112;8.648;2023-04-04T08:23:44;101968.00;;;5.26;54.56
72262;BME280;60173;52.112;8.648;2023-04-04T08:26:11;101972.41;;;5.38;53.36
72262;BME280;60173;52.112;8.648;2023-04-04T08:28:37;101974.97;;;5.33;52.77
72262;BME280;60173;52.112;8.648;2023-04-04T08:31:04;101968.50;;;5.34;53.02
72262;BME280;60173;52.112;8.648;2023-04-04T08:33:30;101975.78;;;4.53;50.18
72262;BME280;60173;52.112;8.648;2023-04-04T08:36:12;101965.53;;;4.44;50.06
72262;BME280;60173;52.112;8.648;2023-04-04T08:38:38;101957.91;;;5.03;49.63
72262;BME280;60173;52.112;8.648;2023-04-04T08:41:04;101963.44;;;5.26;49.57
72262;BME280;60173;52.112;8.648;2023-04-04T08:43:33;101960.41;;;4.61;49.41
72262;BME280;60173;52.112;8.648;2023-04-04T08:46:01;101959.84;;;5.14;48.43
72262;BME280;60173;52.112;8.648;2023-04-04T08:48:29;101961.25;;;4.11;48.52
72262;BME280;60173;52.112;8.648;2023-04-04T08:50:58;101966.66;;;4.04;50.59
72262;BME280;60173;52.112;8.648;2023-04-04T08:53:26;101963.56;;;4.01;50.42
72262;BME280;60173;52.112;8.648;2023-04-04T08:55:54;101962.75;;;3.69;51.71
72262;BME280;60173;52.112;8.648;2023-04-04T08:58:20;101964.50;;;4.13;50.44
72262;BME280;60173;52.112;8.648;2023-04-04T09:00:46;101963.63;;;4.19;49.90
72262;BME280;60173;52.112;8.648;2023-04-04T09:03:23;101971.06;;;4.24;50.01
72262;BME280;60173;52.112;8.648;2023-04-04T09:05:50;101971.16;;;4.11;51.38
72262;BME280;60173;52.112;8.648;2023-04-04T09:08:18;101967.88;;;4.08;50.02
72262;BME280;60173;52.112;8.648;2023-04-04T09:10:44;101971.81;;;3.23;51.36
72262;BME280;60173;52.112;8.648;2023-04-04T09:13:11;101965.00;;;3.72;51.78
72262;BME280;60173;52.112;8.648;2023-04-04T09:16:00;101969.47;;;3.46;51.97
72262;BME280;60173;52.112;8.648;2023-04-04T09:18:27;101965.75;;;3.47;51.14
72262;BME280;60173;52.112;8.648;2023-04-04T09:20:53;101956.94;;;3.72;52.27
72262;BME280;60173;52.112;8.648;2023-04-04T09:23:20;101961.94;;;3.61;53.41
72262;BME280;60173;52.112;8.648;2023-04-04T09:25:53;101967.38;;;3.87;52.53
72262;BME280;60173;52.112;8.648;2023-04-04T09:28:22;101960.13;;;3.87;51.95
72262;BME280;60173;52.112;8.648;2023-04-04T09:30:50;101959.13;;;3.88;51.64
72262;BME280;60173;52.112;8.648;2023-04-04T09:33:19;101951.63;;;4.22;51.50
72262;BME280;60173;52.112;8.648;2023-04-04T09:35:50;101948.88;;;4.53;50.82
72262;BME280;60173;52.112;8.648;2023-04-04T09:38:18;101954.31;;;4.22;50.51
72262;BME280;60173;52.112;8.648;2023-04-04T09:40:46;101951.63;;;4.22;50.16
72262;BME280;60173;52.112;8.648;2023-04-04T09:43:12;101948.44;;;4.06;50.67
72262;BME280;60173;52.112;8.648;2023-04-04T09:45:41;101949.06;;;4.08;50.55
72262;BME280;60173;52.112;8.648;2023-04-04T09:48:09;101945.69;;;4.38;50.91
72262;BME280;60173;52.112;8.648;2023-04-04T09:50:38;101942.09;;;4.26;50.69
72262;BME280;60173;52.112;8.648;2023-04-04T09:53:16;101945.81;;;4.68;51.63
72262;BME280;60173;52.112;8.648;2023-04-04T09:55:48;101939.06;;;4.84;50.40
72262;BME280;60173;52.112;8.648;2023-04-04T09:58:17;101942.19;;;4.13;48.41
72262;BME280;60173;52.112;8.648;2023-04-04T10:00:47;101932.97;;;4.27;48.09
72262;BME280;60173;52.112;8.648;2023-04-04T10:03:14;101934.13;;;4.81;47.38
72262;BME280;60173;52.112;8.648;2023-04-04T10:05:41;101938.53;;;4.32;48.37
72262;BME280;60173;52.112;8.648;2023-04-04T10:08:18;101939.81;;;4.48;48.60
72262;BME280;60173;52.112;8.648;2023-04-04T10:10:50;101932.81;;;5.39;47.86
72262;BME280;60173;52.112;8.648;2023-04-04T10:13:36;101931.31;;;4.51;48.35
72262;BME280;60173;52.112;8.648;2023-04-04T10:16:03;101936.66;;;4.76;47.61
72262;BME280;60173;52.112;8.648;2023-04-04T10:18:31;101933.13;;;4.32;47.36
72262;BME280;60173;52.112;8.648;2023-04-04T10:21:06;101942.81;;;4.83;46.54
72262;BME280;60173;52.112;8.648;2023-04-04T10:23:36;101911.09;;;5.04;46.45
72262;BME280;60173;52.112;8.648;2023-04-04T10:26:02;101914.13;;;4.89;45.43
72262;BME280;60173;52.112;8.648;2023-04-04T10:28:29;101922.16;;;5.14;45.40
72262;BME280;60173;52.112;8.648;2023-04-04T10:31:23;101915.03;;;5.19;44.98
72262;BME280;60173;52.112;8.648;2023-04-04T10:34:09;101923.94;;;4.65;46.22
72262;BME280;60173;52.112;8.648;2023-04-04T10:36:48;101907.38;;;5.35;44.69
72262;BME280;60173;52.112;8.648;2023-04-04T10:39:39;101898.81;;;5.08;44.56
72262;BME280;60173;52.112;8.648;2023-04-04T10:42:09;101898.81;;;5.56;46.62
72262;BME280;60173;52.112;8.648;2023-04-04T10:44:39;101896.97;;;5.38;44.88
72262;BME280;60173;52.112;8.648;2023-04-04T10:47:15;101893.47;;;5.19;45.20
72262;BME280;60173;52.112;8.648;2023-04-04T10:49:43;101896.97;;;5.80;47.18
72262;BME280;60173;52.112;8.648;2023-04-04T10:52:11;101891.13;;;6.25;45.71
72262;BME280;60173;52.112;8.648;2023-04-04T10:54:42;101888.78;;;5.87;45.90
72262;BME280;60173;52.112;8.648;2023-04-04T10:57:10;101894.84;;;5.10;46.66
72262;BME280;60173;52.112;8.648;2023-04-04T11:00:16;101886.78;;;5.10;46.45
72262;BME280;60173;52.112;8.648;2023-04-04T11:02:59;101879.59;;;5.34;47.63
72262;BME280;60173;52.112;8.648;2023-04-04T11:05:37;101887.72;;;4.97;46.23
72262;BME280;60173;52.112;8.648;2023-04-04T11:08:05;101885.19;;;4.47;47.73
72262;BME280;60173;52.112;8.648;2023-04-04T11:10:42;101879.41;;;5.17;47.92
72262;BME280;60173;52.112;8.648;2023-04-04T11:18:21;101871.22;;;5.42;45.16
72262;BME280;60173;52.112;8.648;2023-04-04T11:21:02;101870.94;;;5.74;47.96
72262;BME280;60173;52.112;8.648;2023-04-04T11:28:50;101855.78;;;6.27;43.66
72262;BME280;60173;52.112;8.648;2023-04-04T11:37:13;101849.13;;;5.64;45.64
72262;BME280;60173;52.112;8.648;2023-04-04T11:39:14;101835.31;;;5.84;46.61
72262;BME280;60173;52.112;8.648;2023-04-04T11:44:15;101832.47;;;6.09;46.73
72262;BME280;60173;52.112;8.648;2023-04-04T11:46:42;101837.38;;;6.12;46.83
72262;BME280;60173;52.112;8.648;2023-04-04T11:49:10;101827.41;;;6.13;46.06
72262;BME280;60173;52.112;8.648;2023-04-04T11:51:40;101820.03;;;6.31;45.41
72262;BME280;60173;52.112;8.648;2023-04-04T11:54:16;101818.34;;;6.30;45.58
72262;BME280;60173;52.112;8.648;2023-04-04T11:56:43;101826.34;;;6.49;45.08
72262;BME280;60173;52.112;8.648;2023-04-04T11:59:17;101825.13;;;6.68;43.91
72262;BME280;60173;52.112;8.648;2023-04-04T12:01:44;101829.66;;;6.79;43.75
72262;BME280;60173;52.112;8.648;2023-04-04T12:04:10;101815.22;;;6.86;43.64
72262;BME280;60173;52.112;8.648;2023-04-04T12:06:37;101812.69;;;6.55;43.71
72262;BME280;60173;52.112;8.648;2023-04-04T12:09:05;101813.78;;;6.43;43.43
72262;BME280;60173;52.112;8.648;2023-04-04T12:11:35;101810.13;;;6.61;42.67
72262;BME280;60173;52.112;8.648;2023-04-04T12:14:02;101813.25;;;6.69;44.15
72262;BME280;60173;52.112;8.648;2023-04-04T12:16:29;101810.78;;;6.68;44.72
72262;BME280;60173;52.112;8.648;2023-04-04T12:19:00;101809.72;;;6.05;45.49
72262;BME280;60173;52.112;8.648;2023-04-04T12:21:26;101803.94;;;6.13;44.94
72262;BME280;60173;52.112;8.648;2023-04-04T12:23:55;101800.81;;;6.80;46.09
72262;BME280;60173;52.112;8.648;2023-04-04T12:26:22;101804.94;;;6.99;43.57
72262;BME280;60173;52.112;8.648;2023-04-04T12:28:49;101791.19;;;6.72;42.46
72262;BME280;60173;52.112;8.648;2023-04-04T12:31:15;101795.72;;;6.43;43.61
72262;BME280;60173;52.112;8.648;2023-04-04T12:33:42;101789.41;;;6.14;43.66
72262;BME280;60173;52.112;8.648;2023-04-04T12:36:09;101788.22;;;6.74;43.64
72262;BME280;60173;52.112;8.648;2023-04-04T12:38:57;101784.63;;;6.97;43.92
72262;BME280;60173;52.112;8.648;2023-04-04T12:41:23;101779.44;;;7.07;42.93
72262;BME280;60173;52.112;8.648;2023-04-04T12:43:50;101777.63;;;7.13;42.61
72262;BME280;60173;52.112;8.648;2023-04-04T12:46:16;101776.81;;;7.12;40.15
72262;BME280;60173;52.112;8.648;2023-04-04T12:48:43;101764.31;;;6.25;40.63
72262;BME280;60173;52.112;8.648;2023-04-04T12:51:09;101769.97;;;6.64;40.53
72262;BME280;60173;52.112;8.648;2023-04-04T12:53:49;101767.44;;;6.86;39.78
72262;BME280;60173;52.112;8.648;2023-04-04T12:56:16;101762.09;;;7.20;41.18
72262;BME280;60173;52.112;8.648;2023-04-04T12:58:45;101754.97;;;6.85;41.54
72262;BME280;60173;52.112;8.648;2023-04-04T13:01:14;101763.13;;;6.73;40.89
72262;BME280;60173;52.112;8.648;2023-04-04T13:03:40;101750.53;;;7.08;39.82
72262;BME280;60173;52.112;8.648;2023-04-04T13:06:12;101749.13;;;7.05;40.41
72262;BME280;60173;52.112;8.648;2023-04-04T13:08:51;101744.41;;;7.12;39.67
72262;BME280;60173;52.112;8.648;2023-04-04T13:11:18;101732.09;;;7.05;41.73
72262;BME280;60173;52.112;8.648;2023-04-04T13:13:45;101732.44;;;7.25;37.99
72262;BME280;60173;52.112;8.648;2023-04-04T13:16:33;101724.34;;;7.42;39.72
72262;BME280;60173;52.112;8.648;2023-04-04T13:19:00;101720.97;;;7.85;39.58
72262;BME280;60173;52.112;8.648;2023-04-04T13:21:28;101725.44;;;7.97;37.17
72262;BME280;60173;52.112;8.648;2023-04-04T13:23:54;101727.06;;;7.42;38.50